createdAt,value
2023-07-02T00:01:53.156Z,2.40
2023-07-02T00:04:19.966Z,2.13
2023-07-02T00:06:47.171Z,2.38
2023-07-02T00:09:14.257Z,2.43
2023-07-02T00:11:42.901Z,1.98
2023-07-02T00:14:10.643Z,2.03
2023-07-02T00:16:39.859Z,2.40
2023-07-02T00:19:08.505Z,2.30
2023-07-02T00:21:35.257Z,2.43
2023-07-02T00:24:01.857Z,2.55
2023-07-02T00:26:28.776Z,2.78
2023-07-02T00:28:57.062Z,2.08
2023-07-02T00:31:24.721Z,1.95
2023-07-02T00:33:51.931Z,2.40
2023-07-02T00:36:19.880Z,2.15
2023-07-02T00:38:47.446Z,2.00
2023-07-02T00:41:14.441Z,2.53
2023-07-02T00:43:41.038Z,1.95
2023-07-02T00:46:07.842Z,2.70
2023-07-02T00:48:34.511Z,2.25
2023-07-02T00:51:01.670Z,2.10
2023-07-02T00:53:29.660Z,2.40
2023-07-02T00:55:56.138Z,2.40
2023-07-02T00:58:22.947Z,2.43
2023-07-02T01:00:49.841Z,2.10
2023-07-02T01:03:16.785Z,2.40
2023-07-02T01:05:43.690Z,2.30
2023-07-02T01:08:10.285Z,2.40
2023-07-02T01:10:38.281Z,2.57
2023-07-02T01:13:09.764Z,3.00
2023-07-02T01:15:37.778Z,2.65
2023-07-02T01:18:06.082Z,2.92
2023-07-02T01:20:35.805Z,2.72
2023-07-02T01:23:02.613Z,3.10
2023-07-02T01:25:29.376Z,3.08
2023-07-02T01:27:56.391Z,3.10
2023-07-02T01:30:23.208Z,3.72
2023-07-02T01:32:50.193Z,3.33
2023-07-02T01:35:17.002Z,3.57
2023-07-02T01:37:44.990Z,3.63
2023-07-02T01:40:11.950Z,3.63
2023-07-02T01:42:39.133Z,3.63
2023-07-02T01:45:06.662Z,4.10
2023-07-02T01:47:34.971Z,4.30
2023-07-02T01:50:03.088Z,4.45
2023-07-02T01:52:29.762Z,3.90
2023-07-02T01:54:57.681Z,4.50
2023-07-02T01:57:24.402Z,4.60
2023-07-02T01:59:51.057Z,4.83
2023-07-02T02:02:17.673Z,4.53
2023-07-02T02:04:44.340Z,4.53
2023-07-02T02:07:10.943Z,4.90
2023-07-02T02:09:37.852Z,4.60
2023-07-02T02:12:06.747Z,4.93
2023-07-02T02:14:33.375Z,4.72
2023-07-02T02:17:00.048Z,5.10
2023-07-02T02:19:26.655Z,5.00
2023-07-02T02:21:53.275Z,5.47
2023-07-02T02:24:20.345Z,5.47
2023-07-02T02:26:46.981Z,5.45
2023-07-02T02:29:15.284Z,5.63
2023-07-02T02:31:41.910Z,5.72
2023-07-02T02:34:08.751Z,6.13
2023-07-02T02:36:35.371Z,6.03
2023-07-02T02:39:02.110Z,5.93
2023-07-02T02:41:28.604Z,5.45
2023-07-02T02:43:55.234Z,6.05
2023-07-02T02:46:23.684Z,6.72
2023-07-02T02:48:50.305Z,6.47
2023-07-02T02:51:17.173Z,6.05
2023-07-02T02:53:43.944Z,5.72
2023-07-02T02:56:10.522Z,6.32
2023-07-02T02:58:37.166Z,6.18
2023-07-02T03:01:04.072Z,6.40
2023-07-02T03:03:32.212Z,6.78
2023-07-02T03:05:58.881Z,6.30
2023-07-02T03:08:25.506Z,6.97
2023-07-02T03:10:52.232Z,6.65
2023-07-02T03:13:18.793Z,6.80
2023-07-02T03:15:45.414Z,6.97
2023-07-02T03:18:12.050Z,7.43
2023-07-02T03:20:40.020Z,7.00
2023-07-02T03:23:06.612Z,7.28
2023-07-02T03:25:33.498Z,7.40
2023-07-02T03:28:00.092Z,7.40
2023-07-02T03:30:26.693Z,7.28
2023-07-02T03:32:53.457Z,7.85
2023-07-02T03:35:20.110Z,8.10
2023-07-02T03:37:48.064Z,7.93
2023-07-02T03:40:14.885Z,7.88
2023-07-02T03:42:42.832Z,8.07
2023-07-02T03:45:10.230Z,8.00
2023-07-02T03:47:36.859Z,8.45
2023-07-02T03:50:03.862Z,7.97
2023-07-02T03:52:30.616Z,8.77
2023-07-02T03:54:58.593Z,8.15
2023-07-02T03:57:25.361Z,9.15
2023-07-02T03:59:51.939Z,9.30
2023-07-02T04:02:18.773Z,8.87
2023-07-02T04:04:45.476Z,9.05
2023-07-02T04:07:12.243Z,8.38
2023-07-02T04:09:38.870Z,9.15
2023-07-02T04:12:08.272Z,8.75
2023-07-02T04:14:34.908Z,9.23
2023-07-02T04:17:03.047Z,9.13
2023-07-02T04:19:29.626Z,9.05
2023-07-02T04:21:56.396Z,8.88
2023-07-02T04:24:23.150Z,9.57
2023-07-02T04:27:14.700Z,9.47
2023-07-02T04:29:38.237Z,9.95
2023-07-02T04:32:05.697Z,9.70
2023-07-02T04:34:32.706Z,8.93
2023-07-02T04:36:59.285Z,9.38
2023-07-02T04:39:26.009Z,9.97
2023-07-02T04:41:52.621Z,10.38
2023-07-02T04:44:19.748Z,9.48
2023-07-02T04:46:48.399Z,10.70
2023-07-02T04:49:15.052Z,9.77
2023-07-02T04:51:41.657Z,9.77
2023-07-02T04:54:08.359Z,10.20
2023-07-02T04:56:34.967Z,10.43
2023-07-02T04:59:01.546Z,9.95
2023-07-02T05:01:29.242Z,10.35
2023-07-02T05:03:57.248Z,10.27
2023-07-02T05:06:23.865Z,9.95
2023-07-02T05:08:50.452Z,10.45
2023-07-02T05:11:17.184Z,9.93
2023-07-02T05:13:43.799Z,10.10
2023-07-02T05:16:10.337Z,10.70
2023-07-02T05:18:36.930Z,10.80
2023-07-02T05:21:04.981Z,9.70
2023-07-02T05:23:31.726Z,10.27
2023-07-02T05:25:58.284Z,10.65
2023-07-02T05:28:25.282Z,10.47
2023-07-02T05:30:51.915Z,10.15
2023-07-02T05:33:20.043Z,10.82
2023-07-02T05:35:46.685Z,10.73
2023-07-02T05:38:14.916Z,10.90
2023-07-02T05:40:41.673Z,11.10
2023-07-02T05:43:08.349Z,10.43
2023-07-02T05:45:34.987Z,11.52
2023-07-02T05:48:01.604Z,11.52
2023-07-02T05:50:28.432Z,11.68
2023-07-02T05:52:57.096Z,11.90
2023-07-02T05:55:25.254Z,10.93
2023-07-02T05:57:54.493Z,11.55
2023-07-02T06:00:21.357Z,10.93
2023-07-02T06:02:48.084Z,11.23
2023-07-02T06:05:14.890Z,11.60
2023-07-02T06:07:41.722Z,11.32
2023-07-02T06:10:08.811Z,11.15
2023-07-02T06:12:36.636Z,11.23
2023-07-02T06:15:03.899Z,10.88
2023-07-02T06:17:30.547Z,11.37
2023-07-02T06:19:57.356Z,11.93
2023-07-02T06:22:24.072Z,10.95
2023-07-02T06:24:50.740Z,11.35
2023-07-02T06:27:17.499Z,11.35
2023-07-02T06:29:45.412Z,11.30
2023-07-02T06:32:12.013Z,10.20
2023-07-02T06:34:38.607Z,10.52
2023-07-02T06:37:05.769Z,10.00
2023-07-02T06:39:32.519Z,11.25
2023-07-02T06:41:59.104Z,10.57
2023-07-02T06:44:25.817Z,10.32
2023-07-02T06:46:53.911Z,10.95
2023-07-02T06:49:20.607Z,11.68
2023-07-02T06:51:47.233Z,11.00
2023-07-02T06:54:13.804Z,11.10
2023-07-02T06:56:40.646Z,11.68
2023-07-02T06:59:07.239Z,10.40
2023-07-02T07:01:33.814Z,11.18
2023-07-02T07:04:02.052Z,11.35
2023-07-02T07:06:30.059Z,11.23
2023-07-02T07:08:56.684Z,11.18
2023-07-02T07:11:23.378Z,11.25
2023-07-02T07:13:50.038Z,11.00
2023-07-02T07:16:16.807Z,10.70
2023-07-02T07:18:44.965Z,10.30
2023-07-02T07:21:12.944Z,10.38
2023-07-02T07:23:41.041Z,8.45
2023-07-02T07:26:07.772Z,8.88
2023-07-02T07:28:34.380Z,10.07
2023-07-02T07:31:01.076Z,9.67
2023-07-02T07:33:27.719Z,7.57
2023-07-02T07:35:54.470Z,8.02
2023-07-02T07:38:22.595Z,8.82
2023-07-02T07:40:49.771Z,8.68
2023-07-02T07:43:16.593Z,8.40
2023-07-02T07:45:43.440Z,9.27
2023-07-02T07:48:10.208Z,8.63
2023-07-02T07:50:36.847Z,8.60
2023-07-02T07:53:03.538Z,8.82
2023-07-02T07:55:31.508Z,8.10
2023-07-02T07:57:58.771Z,8.82
2023-07-02T08:00:25.491Z,8.70
2023-07-02T08:02:52.138Z,9.30
2023-07-02T08:05:18.780Z,8.85
2023-07-02T08:07:45.387Z,9.03
2023-07-02T08:10:12.007Z,8.80
2023-07-02T08:12:40.167Z,10.02
2023-07-02T08:15:07.902Z,10.30
2023-07-02T08:17:34.737Z,9.25
2023-07-02T08:20:01.379Z,9.03
2023-07-02T08:22:28.484Z,9.30
2023-07-02T08:24:55.072Z,9.85
2023-07-02T08:27:21.825Z,9.25
2023-07-02T08:29:50.147Z,8.60
2023-07-02T08:32:16.980Z,9.20
2023-07-02T08:34:43.626Z,8.93
2023-07-02T08:37:10.385Z,8.88
2023-07-02T08:39:38.414Z,10.30
2023-07-02T08:42:05.740Z,9.18
2023-07-02T08:44:32.543Z,9.33
2023-07-02T08:47:00.983Z,10.60
2023-07-02T08:49:28.106Z,9.98
2023-07-02T08:51:55.075Z,8.82
2023-07-02T08:54:21.951Z,9.60
2023-07-02T08:56:48.527Z,9.43
2023-07-02T08:59:15.505Z,9.05
2023-07-02T09:01:48.230Z,9.23
2023-07-02T09:04:20.582Z,8.85
2023-07-02T09:06:47.586Z,9.30
2023-07-02T09:09:14.228Z,8.60
2023-07-02T09:11:51.298Z,8.65
2023-07-02T09:14:29.995Z,9.18
2023-07-02T09:17:07.792Z,8.73
2023-07-02T09:19:36.719Z,9.13
2023-07-02T09:22:04.187Z,8.63
2023-07-02T09:24:31.776Z,8.10
2023-07-02T09:27:00.248Z,7.85
2023-07-02T09:29:28.418Z,8.57
2023-07-02T09:34:30.303Z,8.43
2023-07-02T09:36:59.624Z,8.73
2023-07-02T09:39:28.224Z,8.85
2023-07-02T09:41:56.260Z,8.07
2023-07-02T09:44:23.547Z,7.90
2023-07-02T09:46:57.004Z,7.90
2023-07-02T09:49:24.539Z,8.13
2023-07-02T09:51:51.791Z,8.35
2023-07-02T09:54:20.051Z,7.72
2023-07-02T09:56:46.904Z,8.50
2023-07-02T09:59:13.535Z,7.83
2023-07-02T10:01:40.407Z,7.55
2023-07-02T10:04:13.931Z,8.15
2023-07-02T10:06:48.455Z,9.35
2023-07-02T10:09:15.282Z,10.40
2023-07-02T10:11:43.573Z,10.70
2023-07-02T10:14:10.291Z,10.65
2023-07-02T10:16:50.139Z,11.50
2023-07-02T10:19:16.919Z,10.95
2023-07-02T10:21:43.677Z,9.70
2023-07-02T10:24:12.378Z,9.30
2023-07-02T10:26:38.989Z,8.93
2023-07-02T10:29:07.478Z,8.65
2023-07-02T10:31:34.260Z,8.20
2023-07-02T10:34:00.933Z,7.50
2023-07-02T10:36:27.561Z,7.77
2023-07-02T10:38:54.399Z,7.05
2023-07-02T10:41:26.617Z,7.72
2023-07-02T10:43:53.452Z,7.40
2023-07-02T10:46:22.461Z,7.05
2023-07-02T10:48:53.362Z,7.23
2023-07-02T10:51:20.185Z,6.82
2023-07-02T10:53:48.054Z,7.38
2023-07-02T10:56:18.828Z,6.20
2023-07-02T10:58:45.490Z,6.82
2023-07-02T11:01:12.687Z,6.80
2023-07-02T11:03:41.172Z,6.32
2023-07-02T11:06:08.023Z,6.43
2023-07-02T11:08:37.553Z,6.07
2023-07-02T11:11:08.335Z,6.38
2023-07-02T11:13:35.088Z,6.13
2023-07-02T11:16:02.378Z,5.53
2023-07-02T11:18:32.137Z,5.60
2023-07-02T11:21:11.017Z,5.55
2023-07-02T11:23:37.769Z,5.82
2023-07-02T11:26:04.860Z,5.60
2023-07-02T11:28:33.009Z,5.20
2023-07-02T11:31:00.138Z,5.40
2023-07-02T11:33:36.840Z,6.00
2023-07-02T11:36:05.740Z,5.45
2023-07-02T11:38:35.576Z,6.20
2023-07-02T11:41:03.914Z,5.53
2023-07-02T11:43:30.525Z,5.32
2023-07-02T11:45:57.130Z,5.55
2023-07-02T11:48:23.874Z,5.75
2023-07-02T11:50:50.483Z,5.30
2023-07-02T11:53:18.453Z,5.10
2023-07-02T11:55:45.345Z,5.80
2023-07-02T11:58:11.953Z,5.72
2023-07-02T12:00:38.581Z,5.80
2023-07-02T12:03:05.399Z,5.53
2023-07-02T12:05:32.220Z,5.10
2023-07-02T12:07:58.779Z,5.45
2023-07-02T12:10:26.879Z,5.60
2023-07-02T12:12:53.472Z,5.50
2023-07-02T12:15:20.195Z,5.80
2023-07-02T12:17:47.090Z,6.00
2023-07-02T12:20:13.832Z,6.00
2023-07-02T12:22:40.641Z,6.00
2023-07-02T12:25:08.132Z,5.85
2023-07-02T12:27:36.111Z,6.10
2023-07-02T12:30:03.018Z,5.95
2023-07-02T12:32:29.695Z,6.22
2023-07-02T12:34:58.037Z,6.68
2023-07-02T12:37:24.868Z,5.80
2023-07-02T12:39:51.494Z,6.17
2023-07-02T12:42:18.560Z,6.57
2023-07-02T12:44:46.625Z,6.15
2023-07-02T12:47:13.219Z,6.18
2023-07-02T12:49:39.952Z,6.65
2023-07-02T12:52:06.850Z,5.90
2023-07-02T12:54:33.854Z,5.63
2023-07-02T12:57:00.603Z,5.82
2023-07-02T12:59:27.194Z,5.55
2023-07-02T13:01:55.236Z,5.30
2023-07-02T13:04:22.122Z,5.57
2023-07-02T13:06:48.988Z,5.47
2023-07-02T13:09:15.547Z,5.55
2023-07-02T13:11:42.322Z,5.35
2023-07-02T13:14:09.100Z,5.57
2023-07-02T13:16:35.750Z,5.50
2023-07-02T13:19:03.909Z,5.53
2023-07-02T13:21:30.648Z,5.53
2023-07-02T13:23:57.269Z,5.55
2023-07-02T13:26:24.005Z,5.80
2023-07-02T13:28:50.749Z,5.13
2023-07-02T13:31:17.487Z,5.15
2023-07-02T13:33:44.666Z,5.53
2023-07-02T13:36:12.850Z,6.00
2023-07-02T13:38:39.637Z,5.80
2023-07-02T13:41:06.676Z,6.27
2023-07-02T13:43:33.400Z,5.50
2023-07-02T13:46:00.351Z,5.85
2023-07-02T13:48:28.788Z,5.50
2023-07-02T13:50:55.794Z,6.32
2023-07-02T13:53:23.808Z,6.40
2023-07-02T13:55:51.204Z,5.90
2023-07-02T13:58:29.380Z,5.57
2023-07-02T14:00:58.182Z,6.70
2023-07-02T14:03:24.922Z,5.88
2023-07-02T14:05:52.202Z,6.20
2023-07-02T14:08:19.263Z,6.25
2023-07-02T14:10:45.878Z,6.35
2023-07-02T14:13:12.585Z,6.47
2023-07-02T14:15:39.196Z,6.28
2023-07-02T14:18:07.641Z,6.43
2023-07-02T14:20:34.321Z,6.35
2023-07-02T14:23:00.988Z,6.22
2023-07-02T14:25:40.676Z,6.18
2023-07-02T14:28:08.607Z,6.10
2023-07-02T14:30:35.205Z,5.93
2023-07-02T14:33:01.803Z,5.50
2023-07-02T14:35:30.150Z,6.45
2023-07-02T14:37:56.710Z,6.43
2023-07-02T14:40:23.344Z,5.85
2023-07-02T14:42:50.354Z,5.87
2023-07-02T14:45:16.944Z,6.15
2023-07-02T14:47:43.962Z,6.55
2023-07-02T14:50:11.028Z,7.35
2023-07-02T14:52:38.995Z,7.00
2023-07-02T14:55:06.388Z,6.90
2023-07-02T14:57:33.204Z,7.47
2023-07-02T14:59:59.855Z,7.57
2023-07-02T15:02:26.791Z,6.60
2023-07-02T15:04:53.689Z,7.00
2023-07-02T15:07:20.618Z,7.20
2023-07-02T15:09:48.829Z,6.82
2023-07-02T15:12:15.434Z,7.13
2023-07-02T15:14:42.377Z,7.20
2023-07-02T15:17:09.057Z,7.07
2023-07-02T15:19:35.710Z,6.90
2023-07-02T15:22:02.207Z,6.97
2023-07-02T15:24:28.832Z,7.32
2023-07-02T15:26:56.993Z,7.25
2023-07-02T15:29:23.876Z,6.78
2023-07-02T15:31:50.482Z,7.23
2023-07-02T15:34:17.080Z,6.68
2023-07-02T15:36:44.148Z,7.18
2023-07-02T15:39:10.802Z,6.75
2023-07-02T15:41:37.401Z,6.55
2023-07-02T15:44:06.173Z,6.93
2023-07-02T15:46:32.818Z,6.72
2023-07-02T15:49:00.166Z,6.85
2023-07-02T15:51:26.768Z,6.22
2023-07-02T15:53:53.429Z,6.68
2023-07-02T15:56:20.047Z,6.40
2023-07-02T15:58:46.687Z,6.30
2023-07-02T16:01:16.877Z,6.75
2023-07-02T16:03:44.058Z,6.68
2023-07-02T16:06:13.101Z,6.90
2023-07-02T16:08:39.818Z,7.20
2023-07-02T16:11:07.502Z,6.43
2023-07-02T16:13:34.172Z,6.43
2023-07-02T16:16:02.208Z,7.28
2023-07-02T16:18:30.298Z,6.70
2023-07-02T16:20:58.640Z,6.50
2023-07-02T16:23:25.339Z,6.72
2023-07-02T16:25:55.607Z,6.40
2023-07-02T16:28:22.827Z,6.97
2023-07-02T16:30:49.581Z,6.57
2023-07-02T16:33:17.864Z,7.00
2023-07-02T16:35:46.749Z,6.22
2023-07-02T16:38:13.952Z,6.60
2023-07-02T16:40:40.814Z,6.97
2023-07-02T16:43:07.431Z,6.13
2023-07-02T16:45:34.387Z,6.83
2023-07-02T16:48:01.012Z,6.95
2023-07-02T16:50:27.861Z,6.80
2023-07-02T16:52:55.824Z,7.05
2023-07-02T16:55:22.589Z,6.65
2023-07-02T16:57:49.172Z,6.57
2023-07-02T17:00:16.624Z,6.68
2023-07-02T17:02:43.688Z,7.55
2023-07-02T17:05:10.387Z,6.95
2023-07-02T17:07:37.454Z,7.00
2023-07-02T17:10:06.917Z,7.13
2023-07-02T17:12:33.503Z,6.85
2023-07-02T17:15:00.099Z,6.95
2023-07-02T17:17:27.901Z,6.22
2023-07-02T17:19:55.905Z,6.70
2023-07-02T17:22:24.779Z,6.73
2023-07-02T17:24:53.283Z,7.65
2023-07-02T17:27:23.271Z,6.82
2023-07-02T17:29:51.225Z,7.38
2023-07-02T17:32:17.850Z,7.32
2023-07-02T17:34:44.837Z,7.40
2023-07-02T17:37:12.551Z,7.03
2023-07-02T17:39:39.397Z,7.27
2023-07-02T17:42:06.962Z,7.30
2023-07-02T17:44:37.026Z,7.72
2023-07-02T17:47:06.123Z,7.30
2023-07-02T17:49:36.639Z,8.48
2023-07-02T17:52:03.871Z,7.13
2023-07-02T17:54:34.982Z,7.13
2023-07-02T17:57:04.047Z,7.00
2023-07-02T17:59:30.655Z,7.60
2023-07-02T18:01:58.665Z,7.78
2023-07-02T18:04:25.333Z,7.20
2023-07-02T18:06:51.977Z,7.53
2023-07-02T18:09:19.136Z,7.47
2023-07-02T18:11:45.851Z,6.70
2023-07-02T18:14:12.438Z,7.78
2023-07-02T18:16:39.236Z,7.23
2023-07-02T18:19:07.240Z,7.78
2023-07-02T18:21:33.928Z,7.30
2023-07-02T18:24:00.592Z,7.15
2023-07-02T18:26:27.458Z,7.13
2023-07-02T18:28:54.272Z,7.10
2023-07-02T18:31:21.597Z,6.90
2023-07-02T18:33:48.296Z,7.05
2023-07-02T18:36:18.726Z,7.15
2023-07-02T18:38:45.609Z,7.40
2023-07-02T18:41:12.794Z,7.00
2023-07-02T18:43:39.645Z,6.95
2023-07-02T18:46:07.092Z,7.03
2023-07-02T18:48:34.286Z,7.35
2023-07-02T18:51:05.063Z,6.95
2023-07-02T18:53:35.275Z,6.50
2023-07-02T18:56:03.423Z,6.97
2023-07-02T18:58:31.332Z,7.13
2023-07-02T19:00:58.162Z,7.20
2023-07-02T19:03:25.171Z,7.10
2023-07-02T19:05:52.537Z,6.50
2023-07-02T19:08:20.080Z,7.07
2023-07-02T19:11:01.791Z,7.03
2023-07-02T19:13:29.100Z,6.80
2023-07-02T19:15:56.410Z,7.43
2023-07-02T19:18:23.342Z,7.40
2023-07-02T19:20:50.670Z,6.72
2023-07-02T19:23:17.893Z,7.20
2023-07-02T19:25:45.391Z,6.82
2023-07-02T19:28:13.692Z,7.18
2023-07-02T19:30:40.436Z,7.03
2023-07-02T19:33:07.295Z,7.32
2023-07-02T19:35:34.062Z,6.65
2023-07-02T19:38:00.943Z,6.90
2023-07-02T19:40:27.650Z,7.40
2023-07-02T19:42:54.388Z,7.27
2023-07-02T19:45:22.488Z,7.57
2023-07-02T19:47:52.419Z,7.63
2023-07-02T19:50:19.305Z,7.22
2023-07-02T19:52:47.289Z,7.82
2023-07-02T19:55:13.985Z,7.07
2023-07-02T19:57:41.086Z,6.90
2023-07-02T20:00:08.911Z,8.00
2023-07-02T20:02:37.832Z,7.53
2023-07-02T20:05:05.726Z,7.43
2023-07-02T20:07:33.352Z,7.27
2023-07-02T20:10:00.201Z,6.85
2023-07-02T20:12:27.151Z,6.68
2023-07-02T20:14:53.949Z,7.03
2023-07-02T20:17:20.642Z,7.20
2023-07-02T20:19:49.032Z,6.70
2023-07-02T20:22:16.245Z,6.72
2023-07-02T20:24:43.206Z,7.28
2023-07-02T20:27:10.375Z,6.85
2023-07-02T20:29:37.306Z,6.60
2023-07-02T20:32:06.096Z,6.20
2023-07-02T20:34:36.851Z,6.13
2023-07-02T20:37:08.040Z,6.65
2023-07-02T20:39:35.314Z,6.05
2023-07-02T20:42:03.707Z,5.95
2023-07-02T20:44:33.144Z,5.87
2023-07-02T20:46:59.888Z,5.70
2023-07-02T20:49:26.883Z,6.18
2023-07-02T20:51:53.498Z,5.80
2023-07-02T20:54:21.477Z,6.10
2023-07-02T20:56:48.856Z,6.13
2023-07-02T20:59:15.713Z,6.18
2023-07-02T21:01:42.648Z,6.25
2023-07-02T21:04:10.080Z,5.78
2023-07-02T21:06:38.915Z,5.95
2023-07-02T21:09:08.567Z,5.37
2023-07-02T21:11:37.196Z,5.47
2023-07-02T21:14:05.635Z,6.07
2023-07-02T21:16:32.447Z,5.40
2023-07-02T21:18:59.712Z,5.45
2023-07-02T21:21:28.799Z,5.30
2023-07-02T21:23:55.574Z,5.32
2023-07-02T21:26:22.235Z,5.40
2023-07-02T21:28:50.588Z,5.50
2023-07-02T21:31:17.456Z,6.50
2023-07-02T21:33:45.062Z,5.33
2023-07-02T21:36:13.088Z,5.38
2023-07-02T21:38:40.362Z,5.30
2023-07-02T21:41:07.993Z,5.50
2023-07-02T21:43:35.009Z,5.45
2023-07-02T21:46:04.873Z,4.93
2023-07-02T21:48:31.994Z,4.78
2023-07-02T21:50:58.898Z,4.93
2023-07-02T21:53:25.554Z,5.05
2023-07-02T21:55:53.070Z,5.00
2023-07-02T21:58:20.044Z,4.73
2023-07-02T22:00:46.869Z,4.82
2023-07-02T22:03:18.403Z,4.95
2023-07-02T22:05:51.458Z,4.53
2023-07-02T22:08:18.437Z,4.32
2023-07-02T22:10:45.036Z,4.00
2023-07-02T22:13:14.695Z,3.72
2023-07-02T22:15:41.401Z,3.45
2023-07-02T22:18:08.037Z,3.33
2023-07-02T22:20:37.431Z,2.63
2023-07-02T22:23:05.161Z,3.00
2023-07-02T22:25:32.675Z,2.78
2023-07-02T22:27:59.472Z,2.60
2023-07-02T22:30:26.591Z,2.00
2023-07-02T22:32:53.331Z,2.47
2023-07-02T22:35:19.942Z,2.43
2023-07-02T22:37:48.503Z,1.92
2023-07-02T22:40:17.811Z,2.25
2023-07-02T22:42:46.037Z,2.15
2023-07-02T22:45:14.575Z,2.40
2023-07-02T22:47:42.036Z,2.17
2023-07-02T22:50:11.420Z,2.03
2023-07-02T22:52:38.101Z,2.40
2023-07-02T22:55:07.469Z,2.35
2023-07-02T22:57:35.127Z,2.20
2023-07-02T23:00:02.364Z,2.03
2023-07-02T23:02:29.992Z,2.72
2023-07-02T23:04:56.768Z,2.40
2023-07-02T23:07:23.688Z,3.05
2023-07-02T23:09:50.280Z,3.55
2023-07-02T23:12:18.199Z,2.57
2023-07-02T23:14:44.929Z,2.35
2023-07-02T23:17:11.599Z,2.15
2023-07-02T23:19:38.323Z,1.98
2023-07-02T23:22:05.413Z,2.80
2023-07-02T23:24:32.071Z,2.30
2023-07-02T23:26:58.936Z,1.95
2023-07-02T23:29:26.984Z,2.40
2023-07-02T23:31:53.604Z,2.40
2023-07-02T23:34:20.364Z,2.30
2023-07-02T23:36:47.107Z,2.20
2023-07-02T23:39:14.483Z,2.17
2023-07-02T23:41:41.651Z,2.00
2023-07-02T23:44:09.501Z,2.45
2023-07-02T23:46:37.521Z,2.42
2023-07-02T23:49:04.348Z,2.20
2023-07-02T23:51:31.033Z,3.28
2023-07-02T23:53:57.964Z,2.45
2023-07-02T23:56:24.629Z,2.42
2023-07-02T23:58:51.206Z,2.55
